メインページ
METAR-TAF:

METAR-TAF

空港 :

シカゴ, イリノイ州, アメリカ合衆国

シカゴ・オヘア国際空港

緯度: 41-58-47N, 経度: 087-54-16W, 海抜: 203m

現時点の気象観測

当レポートは1時間0分前の14:51(UTC)に作成
の風 11kt
気温 5°C
湿度 60%
気圧 1026 hPa
視程: 16.1km
高度25000ftの雲はほとんどない

METAR: KORD 191451Z 36011KT 10SM FEW250 05/M02 A3030 RMK AO2 SLP266 T00501017 51036 $

時間: 10:51 (15:51 UTC)

予報

当レポートは45分前の15:06(UTC)に作成
予報は19日の 15時(UTC)から 20日の 18時(UTC)まで有効
の風 12kt、最大18ktの突風を伴う
視程: 10km
高度25000ftの雲はほとんどない
19日の 2200時(UTC)から
北東の風 11kt
視程: 10km
高度25000ftの雲はほとんどない
20日の 0200時(UTC)から
北/北西の風 5kt
視程: 10km
晴天
20日の 1600時(UTC)から
の風 5kt
視程: 10km
晴天

TAF: KORD 191506Z 1915/2018 36012G18KT P6SM FEW250 FM192200 04011KT P6SM FEW250 FM200200 34005KT P6SM SKC FM201600 08005KT P6SM SKC

4,000以上の空港の気象観測と天気予報(METAR報とTAF報)

利用可能な観測所は地図上に黄色い丸と赤い丸で示す。

丸の上にカーソルを重ねると観測所名を参照できる。

次にクリックすると気象観測と天気予報を参照できる。

マップの切り替え:黒色「×」印の緑ボタンをクリックして拡大、「-」印の緑ボタンをクリックして縮小、緑色の三角印をクリックして隣りの地図に切り替え


METAR-TAF: